Time;durP1;ratioP1;P1;durP2;ratioP2;P2;SDS_P1;SDS_P2;PMS_P1;PMS_P2;Temp;Humidity;BMP_temperature;BMP_pressure;BME280_temperature;BME280_humidity;BME280_pressure;Samples;Min_cycle;Max_cycle;Signal;HPM_P1;HPM_P2
2024/03/07 00:00:21;;;;;;;47.97;22.52;;;6.10;99.90;;;;;;5052166;28;20021;-89
2024/03/07 00:02:49;;;;;;;45.30;23.35;;;6.10;99.90;;;;;;5043411;28;20030;-90
2024/03/07 00:05:20;;;;;;;53.10;25.08;;;6.10;99.90;;;;;;5045819;28;20029;-88
2024/03/07 00:07:49;;;;;;;44.28;21.00;;;6.10;99.90;;;;;;5057595;28;20021;-89
2024/03/07 00:10:15;;;;;;;46.67;25.63;;;6.10;99.90;;;;;;5058046;28;20025;-88
2024/03/07 00:12:41;;;;;;;48.50;23.35;;;6.10;99.90;;;;;;5040546;28;20032;-90
2024/03/07 00:15:11;;;;;;;46.88;24.85;;;6.10;99.90;;;;;;5042220;28;20052;-89
2024/03/07 00:17:38;;;;;;;44.10;21.75;;;6.10;99.90;;;;;;5042324;28;20120;-89
2024/03/07 00:20:08;;;;;;;42.40;20.77;;;6.10;99.90;;;;;;5043535;28;20018;-90
2024/03/07 00:22:37;;;;;;;43.72;21.85;;;6.10;99.90;;;;;;5056364;28;20497;-89
2024/03/07 00:25:06;;;;;;;44.25;23.80;;;6.10;99.90;;;;;;5063967;28;20052;-90
2024/03/07 00:27:33;;;;;;;48.25;23.08;;;6.10;99.90;;;;;;5062337;28;20052;-90
2024/03/07 00:30:05;;;;;;;49.83;23.02;;;6.10;99.90;;;;;;5063429;28;20083;-89
2024/03/07 00:32:35;;;;;;;50.88;24.20;;;6.10;99.90;;;;;;5059504;28;20060;-90
2024/03/07 00:35:03;;;;;;;50.92;24.73;;;6.10;99.90;;;;;;5044652;28;20018;-88
2024/03/07 00:37:30;;;;;;;49.58;23.60;;;6.10;99.90;;;;;;5042348;28;20021;-88
2024/03/07 00:39:56;;;;;;;58.20;27.02;;;6.20;99.90;;;;;;5049391;28;20212;-90
2024/03/07 00:42:22;;;;;;;61.55;28.27;;;6.10;99.90;;;;;;5052776;28;20024;-89
2024/03/07 00:44:49;;;;;;;66.10;28.75;;;6.10;99.90;;;;;;5055702;28;20060;-91
2024/03/07 00:47:17;;;;;;;63.40;28.92;;;6.20;99.90;;;;;;5058249;28;20013;-90
2024/03/07 00:49:43;;;;;;;69.55;27.75;;;6.20;99.90;;;;;;5063350;28;20075;-89
2024/03/07 00:52:10;;;;;;;69.25;27.40;;;6.20;99.90;;;;;;5057810;28;20026;-90
2024/03/07 00:54:36;;;;;;;67.43;30.60;;;6.20;99.90;;;;;;5043261;28;20053;-89
2024/03/07 00:57:01;;;;;;;66.65;31.27;;;6.20;99.90;;;;;;5044623;28;20224;-89
2024/03/07 00:59:27;;;;;;;66.30;28.20;;;6.30;99.90;;;;;;5043599;28;20047;-90
2024/03/07 01:01:53;;;;;;;63.65;28.65;;;6.20;99.90;;;;;;5042303;28;20037;-90
2024/03/07 01:04:19;;;;;;;67.20;28.08;;;6.20;99.90;;;;;;5042239;28;20025;-90
2024/03/07 01:06:45;;;;;;;74.25;29.70;;;6.30;99.90;;;;;;5029134;28;20037;-89
2024/03/07 01:09:14;;;;;;;74.60;32.05;;;6.30;99.90;;;;;;5043577;28;20068;-88
2024/03/07 01:11:45;;;;;;;77.97;31.92;;;6.30;99.90;;;;;;5042536;28;20018;-89
2024/03/07 01:14:11;;;;;;;79.15;29.95;;;6.30;99.90;;;;;;5042014;28;20022;-89
2024/03/07 01:16:37;;;;;;;69.20;30.80;;;6.20;99.90;;;;;;5041535;28;20025;-89
2024/03/07 01:19:06;;;;;;;77.63;33.10;;;6.20;99.90;;;;;;5029104;28;20749;-90
2024/03/07 01:21:35;;;;;;;78.22;32.53;;;6.10;99.90;;;;;;5040564;28;20018;-88
2024/03/07 01:24:01;;;;;;;75.55;32.20;;;6.10;99.90;;;;;;5059158;28;20487;-89
2024/03/07 01:26:30;;;;;;;80.60;32.70;;;6.10;99.90;;;;;;5062310;28;20116;-90
2024/03/07 01:28:59;;;;;;;78.07;31.95;;;6.10;99.90;;;;;;5061509;28;20032;-90
2024/03/07 01:31:25;;;;;;;72.93;32.20;;;6.00;99.90;;;;;;5061647;28;20020;-90
2024/03/07 01:33:51;;;;;;;72.03;30.92;;;6.10;99.90;;;;;;5062755;28;20079;-89
2024/03/07 01:36:19;;;;;;;71.85;30.75;;;6.10;99.90;;;;;;5062730;28;20020;-90
2024/03/07 01:38:45;;;;;;;78.88;31.25;;;6.00;99.90;;;;;;5061685;28;20207;-89
2024/03/07 01:41:10;;;;;;;87.55;33.08;;;6.00;99.90;;;;;;5062520;28;20036;-90
2024/03/07 01:43:36;;;;;;;76.43;31.40;;;6.00;99.90;;;;;;5061946;28;20422;-90
2024/03/07 01:46:02;;;;;;;75.05;31.52;;;6.00;99.90;;;;;;5051752;28;20043;-88
2024/03/07 01:48:28;;;;;;;71.97;30.17;;;6.00;99.90;;;;;;5044149;28;20030;-89
2024/03/07 01:50:55;;;;;;;73.88;26.58;;;6.00;99.90;;;;;;5042745;28;20018;-90
2024/03/07 01:53:22;;;;;;;75.50;27.95;;;6.00;99.90;;;;;;5059931;28;20510;-90
2024/03/07 01:55:48;;;;;;;75.13;29.65;;;5.90;99.90;;;;;;5062203;28;20044;-89
2024/03/07 01:58:17;;;;;;;69.40;29.13;;;5.90;99.90;;;;;;5051716;28;20032;-89
2024/03/07 02:00:43;;;;;;;71.47;29.05;;;5.90;99.90;;;;;;5042957;28;20045;-89
2024/03/07 02:03:09;;;;;;;63.85;28.52;;;5.90;99.90;;;;;;5039784;28;20040;-91
2024/03/07 02:05:35;;;;;;;66.45;27.73;;;5.90;99.90;;;;;;5040951;28;20025;-90
2024/03/07 02:08:04;;;;;;;71.45;28.27;;;5.90;99.90;;;;;;5067895;28;20075;-88
2024/03/07 02:10:29;;;;;;;69.85;27.33;;;5.90;99.90;;;;;;5049706;28;20088;-89
2024/03/07 02:12:55;;;;;;;64.93;27.45;;;5.90;99.90;;;;;;5040794;28;20018;-89
2024/03/07 02:15:21;;;;;;;75.75;28.77;;;5.90;99.90;;;;;;5063979;28;20057;-92
2024/03/07 02:17:47;;;;;;;73.60;30.05;;;5.80;99.90;;;;;;5060434;28;20029;-90
2024/03/07 02:20:13;;;;;;;64.22;27.25;;;5.90;99.90;;;;;;5060097;28;20036;-89
2024/03/07 02:22:39;;;;;;;68.57;28.02;;;5.90;99.90;;;;;;5062611;28;20047;-89
2024/03/07 02:25:07;;;;;;;63.75;27.33;;;5.90;99.90;;;;;;5048103;28;20020;-90
2024/03/07 02:27:32;;;;;;;67.03;30.90;;;5.80;99.90;;;;;;5063997;28;20025;-88
2024/03/07 02:29:58;;;;;;;65.07;28.80;;;5.90;99.90;;;;;;5059835;28;20096;-89
2024/03/07 02:32:24;;;;;;;69.20;28.27;;;5.80;99.90;;;;;;5040689;28;20029;-90
2024/03/07 02:34:49;;;;;;;64.57;27.95;;;5.80;99.90;;;;;;5057731;28;20033;-90
2024/03/07 02:37:15;;;;;;;73.88;29.63;;;5.90;99.90;;;;;;5061647;28;20041;-89
2024/03/07 02:39:40;;;;;;;67.68;28.10;;;5.80;99.90;;;;;;5060962;28;20025;-89
2024/03/07 02:42:06;;;;;;;64.00;30.20;;;5.80;99.90;;;;;;5060103;28;20029;-89
2024/03/07 02:44:32;;;;;;;63.58;28.70;;;5.80;99.90;;;;;;5060857;28;20041;-88
2024/03/07 02:46:58;;;;;;;64.93;27.50;;;5.80;99.90;;;;;;5053025;28;20032;-89
2024/03/07 02:49:24;;;;;;;65.55;28.38;;;5.70;99.90;;;;;;5061812;28;20036;-91
2024/03/07 02:51:50;;;;;;;58.13;27.27;;;5.70;99.90;;;;;;5063945;28;20075;-91
2024/03/07 02:54:15;;;;;;;65.82;25.80;;;5.70;99.90;;;;;;5064947;28;20025;-89
2024/03/07 02:56:41;;;;;;;64.72;27.08;;;5.70;99.90;;;;;;5065378;28;20025;-89
2024/03/07 02:59:07;;;;;;;62.42;26.90;;;5.60;99.90;;;;;;5064723;28;20163;-89
2024/03/07 03:01:33;;;;;;;62.78;27.33;;;5.60;99.90;;;;;;5064819;28;20029;-90
2024/03/07 03:03:59;;;;;;;69.40;27.45;;;5.60;99.90;;;;;;5063909;28;20043;-89
2024/03/07 03:06:24;;;;;;;67.20;27.48;;;5.50;99.90;;;;;;5055188;28;20057;-90
2024/03/07 03:08:50;;;;;;;59.95;26.52;;;5.40;99.90;;;;;;5047601;28;20025;-89
2024/03/07 03:11:16;;;;;;;66.10;29.63;;;5.40;99.90;;;;;;5056533;28;20529;-88
2024/03/07 03:13:42;;;;;;;65.35;27.17;;;5.40;99.90;;;;;;5058203;28;20029;-89
2024/03/07 03:16:08;;;;;;;66.80;28.65;;;5.30;99.90;;;;;;5055159;28;20029;-90
2024/03/07 03:18:34;;;;;;;70.80;26.23;;;5.20;99.90;;;;;;5064400;28;20025;-89
2024/03/07 03:21:01;;;;;;;68.22;27.23;;;5.20;99.90;;;;;;5064447;28;20044;-90
2024/03/07 03:23:27;;;;;;;65.13;27.27;;;5.10;99.90;;;;;;5065174;28;20029;-88
2024/03/07 03:25:53;;;;;;;63.35;27.02;;;5.00;99.90;;;;;;5046562;28;20102;-89
2024/03/07 03:28:20;;;;;;;64.47;30.27;;;5.00;99.90;;;;;;5053265;28;20460;-90
2024/03/07 03:30:47;;;;;;;73.30;29.05;;;4.90;99.90;;;;;;5045128;28;20063;-89
2024/03/07 03:33:12;;;;;;;65.20;27.73;;;4.90;99.90;;;;;;5043233;28;20022;-89
2024/03/07 03:35:39;;;;;;;66.72;27.17;;;4.80;99.90;;;;;;5044562;28;20028;-90
2024/03/07 03:38:05;;;;;;;60.22;27.08;;;4.70;99.90;;;;;;5044770;28;20026;-89
2024/03/07 03:40:31;;;;;;;65.32;28.60;;;4.70;99.90;;;;;;5045054;28;20025;-90
2024/03/07 03:42:57;;;;;;;60.17;25.02;;;4.70;99.90;;;;;;5026084;28;20025;-89
2024/03/07 03:45:25;;;;;;;61.75;25.80;;;4.60;99.90;;;;;;5058947;28;20063;-88
2024/03/07 03:47:51;;;;;;;;;;;4.60;99.90;;;;;;5052870;28;20025;-89
2024/03/07 03:50:19;;;;;;;65.97;26.05;;;4.60;99.90;;;;;;5044699;28;19920;-90
2024/03/07 03:52:45;;;;;;;78.45;28.05;;;4.50;99.90;;;;;;5043521;28;20082;-89
2024/03/07 03:55:12;;;;;;;66.57;26.83;;;4.50;99.90;;;;;;5052950;28;20025;-89
2024/03/07 03:57:42;;;;;;;61.55;26.02;;;4.40;99.90;;;;;;5064616;28;20390;-90
2024/03/07 04:00:12;;;;;;;65.10;27.98;;;4.30;99.90;;;;;;5061376;28;20025;-89
2024/03/07 04:02:42;;;;;;;67.05;30.85;;;4.30;99.90;;;;;;5051658;28;20376;-89
2024/03/07 04:05:10;;;;;;;64.53;27.02;;;4.30;99.90;;;;;;5042929;28;20033;-90
2024/03/07 04:07:41;;;;;;;72.22;26.45;;;4.20;99.90;;;;;;5056190;28;20048;-89
2024/03/07 04:10:08;;;;;;;67.15;26.98;;;4.20;99.90;;;;;;5063618;28;20088;-90
2024/03/07 04:12:35;;;;;;;69.97;28.50;;;4.20;99.90;;;;;;5063729;28;20027;-90
2024/03/07 04:15:03;;;;;;;73.13;28.70;;;4.10;99.90;;;;;;5063047;28;20025;-88
2024/03/07 04:17:30;;;;;;;71.03;27.00;;;4.10;99.90;;;;;;5054839;28;20025;-89
2024/03/07 04:19:58;;;;;;;63.65;25.90;;;4.00;99.90;;;;;;5044446;28;20044;-89
2024/03/07 04:22:24;;;;;;;59.13;28.10;;;4.00;99.90;;;;;;5042909;28;20022;-90
2024/03/07 04:24:53;;;;;;;67.18;26.42;;;4.00;99.90;;;;;;5043581;28;20026;-88
2024/03/07 04:27:21;;;;;;;69.93;28.85;;;3.90;99.90;;;;;;5044191;28;20018;-89
2024/03/07 04:29:50;;;;;;;68.75;27.70;;;3.90;99.90;;;;;;5055879;28;20042;-89
2024/03/07 04:32:16;;;;;;;64.95;25.92;;;3.80;99.90;;;;;;5057035;28;20051;-89
2024/03/07 04:34:43;;;;;;;69.97;26.13;;;3.80;99.90;;;;;;5064783;28;20041;-89
2024/03/07 04:37:09;;;;;;;66.43;26.15;;;3.80;99.90;;;;;;5061478;28;20021;-89
2024/03/07 04:39:35;;;;;;;65.35;27.15;;;3.80;99.90;;;;;;5061184;28;20035;-88
2024/03/07 04:42:01;;;;;;;71.68;30.35;;;3.80;99.90;;;;;;5061494;28;20025;-89
2024/03/07 04:44:27;;;;;;;64.50;28.13;;;3.70;99.90;;;;;;5066910;28;20028;-90
2024/03/07 04:46:55;;;;;;;64.68;27.25;;;3.60;99.90;;;;;;5053302;28;20055;-90
2024/03/07 04:49:25;;;;;;;67.45;27.67;;;3.60;99.90;;;;;;5048816;28;20026;-91
2024/03/07 04:51:51;;;;;;;69.63;26.77;;;3.50;99.90;;;;;;5042283;28;20021;-89
2024/03/07 04:54:20;;;;;;;72.45;27.00;;;3.50;99.90;;;;;;5043860;28;20025;-90
2024/03/07 04:56:47;;;;;;;67.72;27.30;;;3.40;99.90;;;;;;5060123;28;20627;-91
2024/03/07 04:59:14;;;;;;;67.32;26.65;;;3.40;99.90;;;;;;5057291;28;20056;-90
2024/03/07 05:01:40;;;;;;;66.72;28.77;;;3.40;99.90;;;;;;5054749;28;20034;-89
2024/03/07 05:04:08;;;;;;;69.85;28.35;;;3.40;99.90;;;;;;5050538;28;20556;-90
2024/03/07 05:06:33;;;;;;;80.55;32.25;;;3.40;99.90;;;;;;5047613;28;20177;-93
2024/03/07 05:09:03;;;;;;;76.63;33.28;;;3.30;99.90;;;;;;5046970;28;20417;-91
2024/03/07 05:11:35;;;;;;;74.13;28.63;;;3.30;99.90;;;;;;5037842;28;20494;-90
2024/03/07 05:14:02;;;;;;;75.38;30.23;;;3.30;99.90;;;;;;5053623;28;20024;-91
2024/03/07 05:16:29;;;;;;;77.65;31.42;;;3.30;99.90;;;;;;5049550;28;20032;-90
2024/03/07 05:18:58;;;;;;;68.82;30.77;;;3.30;99.90;;;;;;5045933;28;20025;-91
2024/03/07 05:23:59;;;;;;;89.50;37.13;;;3.20;99.90;;;;;;5048961;28;20338;-91
2024/03/07 05:26:26;;;;;;;73.65;33.35;;;3.20;99.90;;;;;;5056554;28;20056;-90
2024/03/07 05:28:51;;;;;;;71.03;28.75;;;3.10;99.90;;;;;;5054058;28;20049;-90
2024/03/07 05:31:19;;;;;;;69.60;30.30;;;3.10;99.90;;;;;;5048907;28;20033;-89
2024/03/07 05:33:45;;;;;;;79.25;31.13;;;3.10;99.90;;;;;;5049236;28;20059;-89
2024/03/07 05:36:17;;;;;;;69.78;27.80;;;3.10;99.90;;;;;;5039658;28;20025;-91
2024/03/07 05:38:43;;;;;;;69.40;29.25;;;3.00;99.90;;;;;;5038224;28;20029;-91
2024/03/07 05:41:13;;;;;;;69.30;27.25;;;3.00;99.90;;;;;;5038844;28;20030;-91
2024/03/07 05:43:39;;;;;;;70.93;27.75;;;3.00;99.90;;;;;;5049685;28;20033;-91
2024/03/07 05:46:06;;;;;;;69.25;27.30;;;3.00;99.90;;;;;;5054306;28;20025;-90
2024/03/07 05:48:33;;;;;;;70.10;25.58;;;2.90;99.90;;;;;;5051500;28;20121;-91
2024/03/07 05:50:59;;;;;;;70.90;27.48;;;3.00;99.90;;;;;;5058770;28;20017;-89
2024/03/07 05:53:25;;;;;;;69.10;29.42;;;2.90;99.90;;;;;;5057167;28;20440;-91
2024/03/07 05:55:51;;;;;;;72.00;28.13;;;2.90;99.90;;;;;;5043340;28;20067;-90
2024/03/07 05:58:17;;;;;;;69.25;28.90;;;2.90;99.90;;;;;;5039845;28;20033;-89
2024/03/07 06:00:51;;;;;;;68.18;27.52;;;2.90;99.90;;;;;;5054155;28;20027;-90
2024/03/07 06:03:19;;;;;;;73.65;31.30;;;2.90;99.90;;;;;;5056398;28;20554;-89
2024/03/07 06:05:48;;;;;;;76.72;29.83;;;2.80;99.90;;;;;;5056657;28;20021;-91
2024/03/07 06:08:16;;;;;;;73.13;32.42;;;2.80;99.90;;;;;;5058083;28;20059;-94
2024/03/07 06:10:42;;;;;;;63.78;29.60;;;2.80;99.90;;;;;;5030778;28;20043;-92
2024/03/07 06:13:09;;;;;;;76.65;32.55;;;2.80;99.90;;;;;;5046118;28;20013;-91
2024/03/07 06:15:35;;;;;;;75.95;31.08;;;2.80;99.90;;;;;;5045668;28;20018;-94
2024/03/07 06:18:01;;;;;;;77.57;32.72;;;2.80;99.90;;;;;;5050130;28;20029;-94
2024/03/07 06:21:14;;;;;;;79.15;29.80;;;2.80;99.90;;;;;;5048310;28;20034;-92
2024/03/07 06:23:40;;;;;;;;;;;2.80;99.90;;;;;;5020761;28;20033;-91
2024/03/07 06:26:12;;;;;;;61.42;26.73;;;2.80;99.90;;;;;;5067661;28;20278;-92
2024/03/07 06:28:39;;;;;;;72.45;30.00;;;2.80;99.90;;;;;;5042936;28;20163;-92
2024/03/07 06:31:07;;;;;;;68.63;27.67;;;2.80;99.90;;;;;;5059263;28;20067;-92
2024/03/07 06:33:34;;;;;;;83.97;40.15;;;2.80;99.90;;;;;;5060638;28;20045;-92
2024/03/07 06:36:01;;;;;;;67.88;30.52;;;2.80;99.90;;;;;;5034161;28;20025;-92
2024/03/07 06:38:27;;;;;;;75.85;32.08;;;2.80;99.90;;;;;;5042292;28;20033;-92
2024/03/07 06:40:52;;;;;;;76.80;31.42;;;2.80;99.90;;;;;;5041077;28;20076;-93
2024/03/07 06:43:18;;;;;;;74.78;32.95;;;2.70;99.90;;;;;;5059725;28;20036;-92
2024/03/07 06:45:46;;;;;;;78.70;31.77;;;2.70;99.90;;;;;;5054496;28;20068;-92
2024/03/07 06:48:14;;;;;;;72.95;30.80;;;2.70;99.90;;;;;;5035579;28;20051;-94
2024/03/07 06:50:39;;;;;;;;;;;2.80;99.90;;;;;;5040218;28;20022;-92
2024/03/07 06:53:09;;;;;;;64.68;25.83;;;2.80;99.90;;;;;;5059923;28;20011;-92
2024/03/07 06:55:35;;;;;;;69.75;26.17;;;2.80;99.90;;;;;;5058120;28;20048;-91
2024/03/07 06:58:04;;;;;;;68.00;29.08;;;2.80;99.90;;;;;;5061581;28;20025;-91
2024/03/07 07:00:33;;;;;;;61.15;25.20;;;2.80;99.90;;;;;;5028104;28;20040;-92
2024/03/07 07:02:59;;;;;;;71.65;27.63;;;2.80;99.90;;;;;;4994690;28;20057;-92
2024/03/07 07:05:25;;;;;;;65.00;27.52;;;2.80;99.90;;;;;;5014658;28;20037;-93
2024/03/07 07:07:51;;;;;;;67.40;26.30;;;2.80;99.90;;;;;;5041476;28;20044;-91
2024/03/07 07:10:23;;;;;;;66.32;29.58;;;2.90;99.90;;;;;;5012343;28;20053;-92
2024/03/07 07:12:49;;;;;;;62.97;27.13;;;2.90;99.90;;;;;;5010525;28;20044;-93
2024/03/07 07:15:17;;;;;;;69.53;27.88;;;2.90;99.90;;;;;;4990371;28;20030;-92
2024/03/07 07:17:46;;;;;;;67.78;29.20;;;2.90;99.90;;;;;;5002566;28;20342;-92
2024/03/07 07:20:24;;;;;;;71.18;28.75;;;3.00;99.90;;;;;;5024481;28;20120;-91
2024/03/07 07:22:50;;;;;;;71.93;31.77;;;3.00;99.90;;;;;;5039281;28;20029;-93
2024/03/07 07:25:16;;;;;;;73.50;31.67;;;3.10;99.90;;;;;;4977624;28;20029;-91
2024/03/07 07:27:49;;;;;;;79.22;33.53;;;3.10;99.90;;;;;;4979006;28;20033;-91
2024/03/07 07:30:22;;;;;;;72.97;29.95;;;3.20;99.90;;;;;;5002193;28;20027;-93
2024/03/07 07:32:49;;;;;;;71.72;28.55;;;3.20;99.90;;;;;;5026712;28;20033;-95
2024/03/07 07:35:32;;;;;;;74.07;31.08;;;3.40;99.90;;;;;;5017410;28;20492;-94
2024/03/07 07:37:59;;;;;;;61.08;24.67;;;3.50;99.90;;;;;;5030469;28;20049;-95
2024/03/07 07:40:33;;;;;;;59.65;24.17;;;3.80;99.90;;;;;;5023087;28;20037;-95
2024/03/07 07:43:02;;;;;;;55.92;26.33;;;4.00;99.90;;;;;;5033150;28;20055;-94
2024/03/07 07:45:28;;;;;;;59.53;25.90;;;4.10;99.90;;;;;;4989244;28;20032;-95
2024/03/07 07:47:54;;;;;;;55.45;25.45;;;4.20;99.70;;;;;;5002913;28;20048;-93
2024/03/07 07:50:22;;;;;;;54.80;23.40;;;4.30;98.80;;;;;;5014900;28;20132;-94
2024/03/07 07:53:07;;;;;;;52.50;22.20;;;4.40;99.10;;;;;;5024315;28;20088;-94
2024/03/07 07:55:36;;;;;;;56.22;23.95;;;4.50;97.80;;;;;;5035001;28;20028;-94
2024/03/07 07:58:04;;;;;;;52.13;23.10;;;4.60;96.40;;;;;;5002054;28;20033;-94
2024/03/07 08:00:30;;;;;;;53.08;24.48;;;4.60;96.20;;;;;;5012503;28;20034;-93
2024/03/07 08:03:11;;;;;;;50.10;20.83;;;4.60;96.70;;;;;;5018999;28;20033;-93
2024/03/07 08:05:38;;;;;;;54.35;23.95;;;4.70;95.50;;;;;;4996012;28;20028;-93
2024/03/07 08:08:18;;;;;;;49.53;21.13;;;4.60;92.90;;;;;;5033674;28;20068;-95
2024/03/07 08:10:47;;;;;;;46.78;20.48;;;4.60;94.30;;;;;;5036217;28;20029;-93
2024/03/07 08:13:13;;;;;;;49.85;21.70;;;4.60;94.30;;;;;;5019343;28;20100;-95
2024/03/07 08:15:39;;;;;;;43.97;20.75;;;4.60;95.20;;;;;;4984554;28;20056;-95
2024/03/07 08:18:08;;;;;;;48.03;19.40;;;4.70;93.90;;;;;;5005382;28;20550;-94
2024/03/07 08:20:38;;;;;;;46.38;21.23;;;4.80;93.20;;;;;;5009698;28;20048;-93
2024/03/07 08:23:10;;;;;;;48.10;19.80;;;4.80;90.50;;;;;;5037733;28;20058;-93
2024/03/07 08:25:36;;;;;;;46.70;20.85;;;4.80;92.20;;;;;;5019842;28;20077;-93
2024/03/07 08:28:02;;;;;;;46.75;19.83;;;4.70;91.30;;;;;;4994767;28;20116;-93
2024/03/07 08:30:30;;;;;;;48.88;20.50;;;4.80;91.40;;;;;;5012756;28;20044;-95
2024/03/07 08:32:56;;;;;;;44.38;18.52;;;4.80;91.10;;;;;;5002635;28;20159;-93
2024/03/07 08:35:23;;;;;;;40.83;18.27;;;4.90;91.30;;;;;;4988785;28;20048;-94
2024/03/07 08:37:54;;;;;;;38.47;19.08;;;4.90;90.60;;;;;;5039978;28;20428;-92
2024/03/07 08:40:32;;;;;;;40.22;20.05;;;4.90;89.00;;;;;;5008074;28;20496;-93
2024/03/07 08:42:58;;;;;;;51.22;21.73;;;5.10;90.30;;;;;;5012671;28;20034;-93
2024/03/07 08:45:25;;;;;;;39.75;16.88;;;5.10;89.70;;;;;;4998285;28;20036;-94
2024/03/07 08:47:54;;;;;;;43.00;19.02;;;5.20;89.80;;;;;;5014737;28;20039;-94
2024/03/07 08:50:20;;;;;;;43.33;19.98;;;5.20;87.20;;;;;;5006046;28;20100;-93
2024/03/07 08:52:48;;;;;;;39.42;17.85;;;5.20;86.50;;;;;;5016724;28;20032;-92
2024/03/07 08:55:16;;;;;;;43.67;18.83;;;5.30;85.50;;;;;;5017614;28;20025;-93
2024/03/07 08:57:48;;;;;;;37.15;17.40;;;5.40;85.70;;;;;;5015530;28;20029;-93
2024/03/07 09:00:24;;;;;;;38.88;19.67;;;5.50;86.00;;;;;;4999806;28;20021;-93
2024/03/07 09:03:26;;;;;;;;;;;;;;;;;;;;;
2024/03/07 09:05:54;;;;;;;40.70;17.95;;;5.60;85.00;;;;;;5016926;28;20033;-94
2024/03/07 09:08:21;;;;;;;39.30;17.42;;;5.70;85.10;;;;;;5015496;28;20049;-96
2024/03/07 09:10:55;;;;;;;42.17;18.92;;;5.80;82.20;;;;;;5018173;28;20056;-95
2024/03/07 09:13:21;;;;;;;36.22;16.92;;;5.80;80.80;;;;;;5026998;28;20025;-93
2024/03/07 09:16:06;;;;;;;42.95;19.40;;;6.00;83.20;;;;;;5024349;28;20111;-94
2024/03/07 09:18:32;;;;;;;39.58;17.38;;;6.10;81.60;;;;;;5085657;22;20469;-91
2024/03/07 09:20:57;;;;;;;41.33;20.65;;;6.10;80.30;;;;;;5077493;28;20038;-90
2024/03/07 09:23:23;;;;;;;42.15;20.30;;;6.20;79.10;;;;;;5057793;28;20878;-90
2024/03/07 09:25:49;;;;;;;40.40;17.58;;;6.20;80.40;;;;;;5093614;28;20478;-89
2024/03/07 09:28:18;;;;;;;42.92;17.33;;;6.30;78.70;;;;;;5045650;28;20024;-92
2024/03/07 09:30:44;;;;;;;37.13;16.45;;;6.30;79.90;;;;;;5073788;28;20032;-93
2024/03/07 09:33:10;;;;;;;43.03;19.13;;;6.40;79.30;;;;;;5052123;28;20039;-90
2024/03/07 09:35:38;;;;;;;59.55;47.60;;;6.50;78.90;;;;;;5067631;28;20032;-92
2024/03/07 09:40:56;;;;;;;39.80;17.95;;;6.70;74.60;;;;;;5080483;28;20056;-91
2024/03/07 09:43:23;;;;;;;39.92;17.58;;;6.70;76.50;;;;;;5041907;28;20426;-91
2024/03/07 09:45:49;;;;;;;38.95;18.20;;;6.80;75.10;;;;;;5044967;28;20036;-90
2024/03/07 09:48:15;;;;;;;35.83;17.95;;;6.90;76.50;;;;;;5057674;28;20047;-92
2024/03/07 09:50:46;;;;;;;36.65;17.55;;;7.00;74.60;;;;;;5073646;28;20016;-90
2024/03/07 09:53:16;;;;;;;37.28;18.15;;;7.10;74.40;;;;;;5074139;28;20283;-94
2024/03/07 09:55:43;;;;;;;40.58;19.73;;;7.20;73.30;;;;;;5087104;28;20475;-92
2024/03/07 09:58:11;;;;;;;41.20;19.73;;;7.40;73.70;;;;;;5086574;28;20036;-88
2024/03/07 10:00:40;;;;;;;41.30;19.73;;;7.40;72.30;;;;;;5061582;28;20066;-90
2024/03/07 10:03:09;;;;;;;44.17;20.83;;;7.60;70.90;;;;;;5061948;28;20123;-90
2024/03/07 10:05:34;;;;;;;41.95;18.13;;;7.70;70.60;;;;;;5039739;28;20054;-93
2024/03/07 10:08:01;;;;;;;40.10;20.65;;;7.70;70.90;;;;;;5089912;28;20031;-92
2024/03/07 10:10:27;;;;;;;45.58;20.35;;;7.80;70.60;;;;;;5058170;28;20028;-90
2024/03/07 10:12:58;;;;;;;44.88;22.08;;;8.00;70.00;;;;;;5061505;28;20413;-94
2024/03/07 10:15:34;;;;;;;46.13;20.58;;;8.10;68.60;;;;;;5048060;28;20469;-90
2024/03/07 10:18:00;;;;;;;43.65;18.85;;;8.20;67.20;;;;;;5066211;28;20025;-90
2024/03/07 10:20:27;;;;;;;43.88;18.67;;;8.20;68.10;;;;;;5036916;28;21316;-90
2024/03/07 10:22:54;;;;;;;42.03;18.13;;;8.40;67.40;;;;;;5091561;28;20075;-92
2024/03/07 10:25:27;;;;;;;40.42;18.42;;;8.40;66.40;;;;;;5061261;28;20105;-91
2024/03/07 10:27:54;;;;;;;38.85;18.52;;;8.20;67.90;;;;;;5072078;28;20055;-89
2024/03/07 10:30:23;;;;;;;44.25;19.58;;;7.90;68.70;;;;;;5052190;28;20031;-92
2024/03/07 10:32:56;;;;;;;45.33;20.13;;;7.70;69.10;;;;;;5047396;28;20020;-92
2024/03/07 10:35:24;;;;;;;45.13;19.65;;;7.60;71.10;;;;;;5064558;28;20114;-91
2024/03/07 10:37:53;;;;;;;47.47;21.02;;;7.60;70.50;;;;;;5070151;28;20543;-89
2024/03/07 10:40:21;;;;;;;42.83;19.33;;;7.60;71.60;;;;;;5045227;28;20474;-91
2024/03/07 10:42:54;;;;;;;43.90;19.52;;;7.50;72.40;;;;;;5045250;28;20537;-90
2024/03/07 10:45:23;;;;;;;46.58;21.13;;;7.50;71.20;;;;;;5057837;28;20020;-91
2024/03/07 10:48:01;;;;;;;46.35;21.45;;;7.50;72.90;;;;;;5069538;28;20023;-90
2024/03/07 10:50:47;;;;;;;45.03;21.65;;;7.80;71.70;;;;;;5068616;28;20696;-92
2024/03/07 10:53:50;;;;;;;41.17;19.52;;;7.90;70.20;;;;;;5084647;28;20027;-91
2024/03/07 10:56:43;;;;;;;44.33;20.75;;;7.80;70.90;;;;;;5080315;28;20017;-90
2024/03/07 10:59:30;;;;;;;44.90;20.73;;;7.80;70.80;;;;;;5090727;28;20992;-90
2024/03/07 11:02:30;;;;;;;50.58;21.83;;;7.70;70.60;;;;;;5082181;28;20082;-92
2024/03/07 11:04:56;;;;;;;42.47;20.55;;;7.80;71.30;;;;;;5098028;28;20045;-94
2024/03/07 11:07:23;;;;;;;42.42;19.40;;;7.70;71.90;;;;;;5037525;28;20020;-92
2024/03/07 11:09:51;;;;;;;47.17;20.92;;;7.70;72.40;;;;;;5047959;28;20036;-94
2024/03/07 11:12:20;;;;;;;41.83;21.40;;;7.60;71.60;;;;;;5033964;28;20115;-90
2024/03/07 11:14:48;;;;;;;43.22;20.52;;;7.70;72.90;;;;;;5050484;28;21418;-91
2024/03/07 11:17:36;;;;;;;;;;;7.70;70.90;;;;;;5060268;28;20072;-91
2024/03/07 11:20:24;;;;;;;59.05;22.75;;;7.70;70.60;;;;;;5083496;28;20668;-91
2024/03/07 11:22:53;;;;;;;47.30;20.75;;;7.60;69.50;;;;;;5063718;28;20042;-91
2024/03/07 11:25:21;;;;;;;43.03;20.08;;;7.70;70.60;;;;;;5026931;28;20088;-91
2024/03/07 11:28:05;;;;;;;50.25;21.35;;;8.00;70.00;;;;;;5066985;28;20792;-91
2024/03/07 11:30:31;;;;;;;43.13;21.95;;;8.50;67.90;;;;;;5034488;28;20028;-92
2024/03/07 11:32:57;;;;;;;48.17;20.38;;;8.60;67.20;;;;;;5040623;28;20033;-91
2024/03/07 11:35:35;;;;;;;58.13;22.00;;;8.60;65.60;;;;;;5036166;28;21169;-90
2024/03/07 11:38:04;;;;;;;51.55;21.13;;;8.50;66.70;;;;;;5085522;28;20076;-92
2024/03/07 11:40:30;;;;;;;51.90;22.27;;;9.00;66.90;;;;;;5038035;28;20086;-92
2024/03/07 11:42:59;;;;;;;53.03;22.67;;;9.00;65.50;;;;;;5048779;28;20033;-92
2024/03/07 11:45:26;;;;;;;49.15;22.08;;;9.20;63.60;;;;;;5048808;28;20337;-92
2024/03/07 11:48:09;;;;;;;46.25;21.92;;;9.80;61.30;;;;;;5040047;28;20033;-91
2024/03/07 11:50:36;;;;;;;51.28;23.27;;;10.10;61.20;;;;;;5064657;28;20028;-90
2024/03/07 11:55:48;;;;;;;45.95;21.52;;;10.90;56.50;;;;;;5088149;28;20348;-90
2024/03/07 11:58:21;;;;;;;44.45;20.08;;;11.30;54.50;;;;;;5070126;28;20089;-91
2024/03/07 12:00:47;;;;;;;41.88;20.45;;;11.60;53.50;;;;;;5065599;28;20045;-90
2024/03/07 12:03:25;;;;;;;42.28;20.83;;;11.70;54.40;;;;;;5063251;28;20024;-92
2024/03/07 12:05:52;;;;;;;46.42;23.63;;;11.80;52.10;;;;;;5040715;28;20453;-91
2024/03/07 12:08:27;;;;;;;43.08;21.08;;;12.10;51.30;;;;;;5066738;28;20038;-93
2024/03/07 12:10:55;;;;;;;39.80;19.58;;;12.00;51.50;;;;;;5090065;28;20106;-91
2024/03/07 12:13:22;;;;;;;45.28;20.55;;;12.00;52.00;;;;;;5050072;28;20062;-91
2024/03/07 12:15:51;;;;;;;45.58;21.10;;;12.10;52.20;;;;;;5054852;28;20020;-91
2024/03/07 12:18:20;;;;;;;43.78;19.52;;;12.20;50.60;;;;;;5037212;28;20032;-91
2024/03/07 12:20:51;;;;;;;40.35;20.00;;;12.30;50.20;;;;;;5036390;28;20041;-93
2024/03/07 12:23:30;;;;;;;38.17;18.85;;;12.60;48.30;;;;;;5068548;28;20024;-94
2024/03/07 12:26:03;;;;;;;40.97;21.95;;;12.90;48.30;;;;;;5084786;28;20371;-91
2024/03/07 12:28:33;;;;;;;44.25;22.50;;;13.20;48.00;;;;;;5047528;28;20040;-91
2024/03/07 12:31:02;;;;;;;45.13;22.23;;;13.50;46.80;;;;;;5050604;28;20718;-92
2024/03/07 12:33:29;;;;;;;40.42;19.30;;;12.90;46.10;;;;;;5048356;28;20032;-93
2024/03/07 12:36:05;;;;;;;39.25;18.92;;;12.70;48.10;;;;;;5062300;28;20085;-92
2024/03/07 12:38:35;;;;;;;42.47;19.75;;;12.20;47.60;;;;;;5051749;28;20037;-91
2024/03/07 12:41:33;;;;;;;43.97;21.05;;;12.10;48.90;;;;;;5084619;28;20016;-91
2024/03/07 12:43:59;;;;;;;44.85;19.58;;;12.10;49.70;;;;;;5086604;28;20111;-89
2024/03/07 12:46:25;;;;;;;39.67;20.40;;;12.50;49.20;;;;;;5054548;28;20083;-91
2024/03/07 12:48:50;;;;;;;45.17;20.08;;;12.60;49.10;;;;;;5042399;28;20354;-92
2024/03/07 12:51:19;;;;;;;45.45;18.73;;;12.80;47.40;;;;;;5075634;28;20051;-95
2024/03/07 12:53:46;;;;;;;49.45;21.67;;;12.80;47.30;;;;;;5073620;28;20893;-96